createdAt,value
2022-08-14T00:02:14.396Z,13.89
2022-08-14T00:04:44.919Z,13.85
2022-08-14T00:07:13.906Z,13.83
2022-08-14T00:10:02.129Z,13.81
2022-08-14T00:12:39.171Z,13.75
2022-08-14T00:15:18.999Z,13.71
2022-08-14T00:17:53.575Z,13.68
2022-08-14T00:20:35.964Z,13.63
2022-08-14T00:23:16.641Z,13.57
2022-08-14T00:25:58.612Z,13.60
2022-08-14T00:28:36.075Z,13.57
2022-08-14T00:31:08.103Z,13.58
2022-08-14T00:33:39.258Z,13.50
2022-08-14T00:36:37.635Z,13.52
2022-08-14T00:39:14.794Z,13.52
2022-08-14T00:45:55.286Z,13.40
2022-08-14T00:48:34.723Z,13.41
2022-08-14T00:51:07.955Z,13.40
2022-08-14T00:53:36.639Z,13.38
2022-08-14T00:56:08.598Z,13.36
2022-08-14T00:58:45.260Z,13.34
2022-08-14T01:01:16.728Z,13.27
2022-08-14T01:03:45.645Z,13.29
2022-08-14T01:06:16.959Z,13.25
2022-08-14T01:08:52.170Z,13.22
2022-08-14T01:11:35.649Z,13.20
2022-08-14T01:14:25.266Z,13.26
2022-08-14T01:16:55.399Z,13.18
2022-08-14T01:19:24.995Z,13.10
2022-08-14T01:21:53.357Z,13.09
2022-08-14T01:24:30.820Z,13.10
2022-08-14T01:27:02.697Z,13.05
2022-08-14T01:29:59.034Z,13.03
2022-08-14T01:32:23.073Z,13.01
2022-08-14T01:35:17.701Z,12.98
2022-08-14T01:37:44.129Z,12.92
2022-08-14T01:40:12.169Z,12.87
2022-08-14T01:42:44.704Z,12.84
2022-08-14T01:45:12.119Z,12.85
2022-08-14T01:47:40.252Z,12.86
2022-08-14T01:50:10.163Z,12.82
2022-08-14T01:52:58.859Z,12.82
2022-08-14T01:55:27.201Z,12.79
2022-08-14T01:58:19.014Z,12.75
2022-08-14T02:00:43.187Z,12.71
2022-08-14T02:03:15.930Z,12.73
2022-08-14T02:05:43.260Z,12.72
2022-08-14T02:08:10.752Z,12.69
2022-08-14T02:10:46.643Z,12.60
2022-08-14T02:13:16.758Z,12.62
2022-08-14T02:15:45.745Z,12.58
2022-08-14T02:18:16.152Z,12.53
2022-08-14T02:20:43.416Z,12.49
2022-08-14T02:23:11.475Z,12.48
2022-08-14T02:25:39.469Z,12.48
2022-08-14T02:28:22.182Z,12.41
2022-08-14T02:30:54.574Z,12.38
2022-08-14T02:33:21.880Z,12.41
2022-08-14T02:35:53.442Z,12.41
2022-08-14T02:38:35.102Z,12.40
2022-08-14T02:45:12.543Z,12.28
2022-08-14T02:47:39.726Z,12.28
2022-08-14T02:50:15.248Z,12.25
2022-08-14T02:53:05.707Z,12.25
2022-08-14T02:55:32.073Z,12.21
2022-08-14T02:58:03.573Z,12.21
2022-08-14T03:00:35.078Z,12.21
2022-08-14T03:03:07.841Z,12.19
2022-08-14T03:05:36.993Z,12.18
2022-08-14T03:08:15.995Z,12.18
2022-08-14T03:10:48.736Z,12.18
2022-08-14T03:13:21.452Z,12.15
2022-08-14T03:15:56.111Z,12.11
2022-08-14T03:18:31.512Z,12.13
2022-08-14T03:21:07.445Z,12.06
2022-08-14T03:23:37.681Z,12.05
2022-08-14T03:26:18.262Z,12.04
2022-08-14T03:28:57.387Z,11.99
2022-08-14T03:35:37.442Z,11.87
2022-08-14T03:39:12.192Z,11.88
2022-08-14T03:40:58.124Z,11.86
2022-08-14T03:43:28.423Z,11.84
2022-08-14T03:45:59.785Z,11.82
2022-08-14T03:48:31.112Z,11.77
2022-08-14T03:55:12.512Z,11.64
2022-08-14T03:57:42.681Z,11.66
2022-08-14T04:00:27.692Z,11.65
2022-08-14T04:03:02.158Z,11.64
2022-08-14T04:05:29.867Z,11.61
2022-08-14T04:08:28.956Z,11.59
2022-08-14T04:14:57.173Z,11.43
2022-08-14T04:17:24.998Z,11.45
2022-08-14T04:19:53.422Z,11.47
2022-08-14T04:22:21.972Z,11.45
2022-08-14T04:24:50.061Z,11.47
2022-08-14T04:27:18.590Z,11.46
2022-08-14T04:29:46.164Z,11.51
2022-08-14T04:33:01.778Z,11.47
2022-08-14T04:35:07.841Z,11.45
2022-08-14T04:37:38.866Z,11.44
2022-08-14T04:40:09.025Z,11.43
2022-08-14T04:42:37.121Z,11.42
2022-08-14T04:45:14.545Z,11.42
2022-08-14T04:51:56.442Z,11.32
2022-08-14T04:54:25.224Z,11.32
2022-08-14T04:56:54.362Z,11.31
2022-08-14T04:59:24.328Z,11.29
2022-08-14T05:13:47.406Z,11.20
2022-08-14T05:16:20.772Z,11.23
2022-08-14T05:22:41.056Z,11.24
2022-08-14T05:25:09.920Z,11.29
2022-08-14T05:31:20.676Z,11.32
2022-08-14T05:33:56.574Z,11.34
2022-08-14T05:36:25.114Z,11.34
2022-08-14T05:38:53.724Z,11.39
2022-08-14T05:41:21.789Z,11.42
2022-08-14T05:43:49.557Z,11.46
2022-08-14T05:46:20.877Z,11.52
2022-08-14T05:48:57.303Z,11.55
2022-08-14T05:51:27.186Z,11.62
2022-08-14T05:54:01.701Z,11.75
2022-08-14T05:56:44.292Z,11.84
2022-08-14T05:59:12.083Z,11.93
2022-08-14T06:01:39.682Z,12.04
2022-08-14T06:04:07.376Z,12.14
2022-08-14T06:06:38.657Z,12.24
2022-08-14T06:09:06.890Z,12.36
2022-08-14T06:19:11.213Z,12.73
2022-08-14T06:21:40.531Z,12.89
2022-08-14T06:24:10.314Z,13.03
2022-08-14T06:26:51.952Z,13.19
2022-08-14T06:29:24.670Z,13.29
2022-08-14T06:35:44.171Z,13.56
2022-08-14T06:38:23.429Z,13.66
2022-08-14T06:40:53.200Z,13.76
2022-08-14T06:47:34.360Z,13.96
2022-08-14T06:50:03.526Z,14.05
2022-08-14T06:52:32.674Z,14.15
2022-08-14T06:54:59.888Z,14.23
2022-08-14T06:57:40.142Z,14.35
2022-08-14T07:00:22.288Z,14.45
2022-08-14T07:02:54.908Z,14.57
2022-08-14T07:05:23.495Z,14.65
2022-08-14T07:11:42.683Z,14.87
2022-08-14T07:18:14.206Z,15.06
2022-08-14T07:20:42.905Z,15.16
2022-08-14T07:23:20.951Z,15.25
2022-08-14T07:25:51.671Z,15.35
2022-08-14T07:28:24.683Z,15.44
2022-08-14T07:30:54.576Z,15.52
2022-08-14T07:33:24.623Z,15.64
2022-08-14T07:35:59.771Z,15.75
2022-08-14T07:38:35.748Z,15.83
2022-08-14T07:41:14.384Z,15.91
2022-08-14T07:43:55.169Z,15.98
2022-08-14T07:46:28.263Z,16.09
2022-08-14T07:52:39.045Z,16.30
2022-08-14T07:55:11.791Z,16.42
2022-08-14T07:57:40.799Z,16.49
2022-08-14T08:00:31.295Z,16.61
2022-08-14T08:03:00.361Z,16.70
2022-08-14T08:09:10.342Z,16.90
2022-08-14T08:15:21.710Z,17.07
2022-08-14T08:17:53.830Z,17.16
2022-08-14T08:20:29.288Z,17.28
2022-08-14T08:22:57.707Z,17.36
2022-08-14T08:25:39.866Z,17.45
2022-08-14T08:32:43.856Z,17.69
2022-08-14T08:39:16.598Z,17.88
2022-08-14T08:41:50.668Z,17.97
2022-08-14T08:44:31.938Z,18.08
2022-08-14T08:47:03.477Z,18.19
2022-08-14T08:49:43.309Z,18.30
2022-08-14T08:56:30.606Z,18.42
2022-08-14T08:59:20.847Z,18.53
2022-08-14T09:01:57.887Z,18.62
2022-08-14T09:04:45.335Z,18.69
2022-08-14T09:07:27.531Z,18.75
2022-08-14T09:09:59.866Z,18.82
2022-08-14T09:12:33.141Z,18.93
2022-08-14T09:19:00.325Z,19.07
2022-08-14T09:21:31.398Z,19.15
2022-08-14T09:24:28.834Z,19.28
2022-08-14T09:26:49.522Z,19.39
2022-08-14T09:29:22.880Z,19.47
2022-08-14T09:31:58.131Z,19.51
2022-08-14T09:34:58.457Z,19.62
2022-08-14T09:37:48.331Z,19.71
2022-08-14T09:40:59.684Z,19.77
2022-08-14T09:44:04.633Z,19.87
2022-08-14T09:46:35.366Z,19.98
2022-08-14T09:49:16.350Z,20.01
2022-08-14T09:51:58.455Z,20.07
2022-08-14T09:54:47.486Z,20.13
2022-08-14T09:57:30.197Z,20.22
2022-08-14T09:59:57.806Z,20.31
2022-08-14T10:10:43.681Z,20.57
2022-08-14T10:13:26.766Z,20.68
2022-08-14T10:20:03.709Z,20.82
2022-08-14T10:23:12.519Z,20.94
2022-08-14T10:29:31.341Z,21.25
2022-08-14T10:36:00.862Z,21.48
2022-08-14T10:38:33.855Z,21.64
2022-08-14T10:41:16.839Z,21.83
2022-08-14T10:44:04.632Z,22.02
2022-08-14T10:50:44.347Z,22.43
2022-08-14T10:53:13.504Z,22.61
2022-08-14T10:59:57.021Z,22.98
2022-08-14T11:02:54.050Z,23.16
2022-08-14T11:05:25.486Z,23.33
2022-08-14T11:07:59.731Z,23.42
2022-08-14T11:10:57.753Z,23.50
2022-08-14T11:13:31.710Z,23.72
2022-08-14T11:16:54.557Z,23.90
2022-08-14T11:23:38.227Z,24.32
2022-08-14T11:26:10.301Z,24.44
2022-08-14T11:32:50.696Z,24.96
2022-08-14T11:35:25.831Z,25.20
2022-08-14T11:38:11.753Z,25.40
2022-08-14T11:40:39.910Z,25.57
2022-08-14T11:43:09.281Z,25.81
2022-08-14T11:49:52.009Z,26.33
2022-08-14T11:52:19.576Z,26.48
2022-08-14T11:54:58.870Z,26.64
2022-08-14T11:57:26.318Z,26.80
2022-08-14T12:00:14.852Z,26.95
2022-08-14T12:03:03.301Z,27.12
2022-08-14T12:05:40.148Z,27.26
2022-08-14T12:08:13.377Z,27.34
2022-08-14T12:14:56.084Z,27.43
2022-08-14T12:17:31.910Z,27.44
2022-08-14T12:20:30.137Z,27.56
2022-08-14T12:27:01.255Z,27.70
2022-08-14T12:29:28.473Z,27.70
2022-08-14T12:32:04.633Z,27.69
2022-08-14T12:34:34.929Z,27.81
2022-08-14T12:46:40.598Z,28.24
2022-08-14T12:49:17.928Z,28.36
2022-08-14T12:56:21.643Z,28.47
2022-08-14T13:02:59.065Z,28.61
2022-08-14T13:05:31.879Z,28.76
2022-08-14T13:08:05.568Z,28.90
2022-08-14T13:15:27.143Z,28.87
2022-08-14T13:17:58.109Z,28.87
2022-08-14T13:20:27.856Z,28.93
2022-08-14T13:39:36.714Z,29.57
2022-08-14T13:42:08.316Z,29.73
2022-08-14T13:44:38.119Z,29.87
2022-08-14T13:47:10.939Z,30.03
2022-08-14T13:49:40.165Z,30.13
2022-08-14T13:52:14.592Z,30.24
2022-08-14T13:59:44.151Z,30.44
2022-08-14T14:06:25.282Z,30.53
2022-08-14T14:08:59.145Z,30.66
2022-08-14T14:11:29.825Z,30.73
2022-08-14T14:13:58.965Z,30.82
2022-08-14T14:16:30.887Z,30.79
2022-08-14T14:19:04.475Z,30.92
2022-08-14T14:21:34.491Z,31.15
2022-08-14T14:28:02.021Z,31.16
2022-08-14T14:30:51.828Z,31.16
2022-08-14T14:33:44.716Z,31.12
2022-08-14T14:36:07.796Z,31.30
2022-08-14T14:38:40.281Z,31.42
2022-08-14T14:41:08.662Z,31.54
2022-08-14T14:43:41.542Z,31.53
2022-08-14T14:46:13.406Z,31.59
2022-08-14T14:48:46.755Z,31.62
2022-08-14T14:51:21.779Z,31.70
2022-08-14T14:53:49.199Z,31.81
2022-08-14T14:56:51.688Z,31.83
2022-08-14T14:59:05.065Z,31.88
2022-08-14T15:05:33.139Z,32.04
2022-08-14T15:12:00.030Z,32.03
2022-08-14T15:14:55.498Z,31.99
2022-08-14T15:17:35.021Z,31.92
2022-08-14T15:24:02.208Z,31.65
2022-08-14T15:26:32.540Z,31.53
2022-08-14T15:29:06.431Z,31.57
2022-08-14T15:32:08.700Z,31.70
2022-08-14T15:34:46.112Z,31.80
2022-08-14T15:37:20.373Z,31.82
2022-08-14T15:39:52.655Z,31.84
2022-08-14T15:42:22.083Z,31.75
2022-08-14T15:44:57.272Z,31.79
2022-08-14T15:47:31.027Z,31.78
2022-08-14T15:50:01.253Z,31.68
2022-08-14T15:52:35.307Z,31.56
2022-08-14T15:55:09.084Z,31.46
2022-08-14T15:57:39.530Z,31.19
2022-08-14T16:00:43.458Z,30.94
2022-08-14T16:03:12.205Z,30.69
2022-08-14T16:05:41.354Z,30.52
2022-08-14T16:08:28.956Z,30.42
2022-08-14T16:11:00.806Z,30.29
2022-08-14T16:13:39.276Z,30.21
2022-08-14T16:16:49.813Z,30.05
2022-08-14T16:19:45.726Z,29.77
2022-08-14T16:22:59.241Z,29.48
2022-08-14T16:29:10.872Z,28.75
2022-08-14T16:31:38.833Z,28.53
2022-08-14T16:34:44.469Z,28.33
2022-08-14T16:36:55.160Z,28.08
2022-08-14T16:39:23.993Z,27.83
2022-08-14T16:41:53.148Z,27.64
2022-08-14T16:44:33.789Z,27.46
2022-08-14T16:47:05.473Z,27.30
2022-08-14T16:50:02.941Z,27.11
2022-08-14T16:52:26.346Z,26.95
2022-08-14T16:59:20.843Z,26.56
2022-08-14T17:06:25.693Z,26.22
2022-08-14T17:12:45.027Z,25.95
2022-08-14T17:15:15.005Z,25.87
2022-08-14T17:17:57.987Z,25.74
2022-08-14T17:24:57.701Z,25.42
2022-08-14T17:31:58.000Z,25.18
2022-08-14T17:34:46.108Z,25.09
2022-08-14T17:37:29.230Z,25.00
2022-08-14T17:52:34.781Z,24.47
2022-08-14T17:56:05.476Z,24.36
2022-08-14T17:58:41.897Z,24.28
2022-08-14T18:05:10.908Z,24.08
2022-08-14T18:08:00.429Z,24.03
2022-08-14T18:14:31.570Z,23.82
2022-08-14T18:17:02.415Z,23.78
2022-08-14T18:19:34.572Z,23.76
2022-08-14T18:22:04.057Z,23.69
2022-08-14T18:24:31.989Z,23.67
2022-08-14T18:27:23.045Z,23.59
2022-08-14T18:29:55.460Z,23.51
2022-08-14T18:32:32.755Z,23.42
2022-08-14T18:35:11.486Z,23.34
2022-08-14T18:37:42.542Z,23.30
2022-08-14T18:44:10.634Z,23.15
2022-08-14T18:50:31.310Z,22.99
2022-08-14T18:53:10.614Z,22.92
2022-08-14T18:55:53.544Z,22.91
2022-08-14T19:11:24.091Z,22.46
2022-08-14T19:14:05.180Z,22.43
2022-08-14T19:21:01.875Z,22.30
2022-08-14T19:23:42.115Z,22.27
2022-08-14T19:26:33.878Z,22.24
2022-08-14T19:29:35.891Z,22.16
2022-08-14T19:32:36.482Z,22.08
2022-08-14T19:35:24.690Z,22.06
2022-08-14T19:38:08.865Z,22.03
2022-08-14T19:40:56.222Z,21.97
2022-08-14T19:43:50.850Z,21.97
2022-08-14T19:55:18.514Z,21.70
2022-08-14T19:57:57.885Z,21.73
2022-08-14T20:00:29.059Z,21.70
2022-08-14T20:03:10.175Z,21.68
2022-08-14T20:05:42.811Z,21.67
2022-08-14T20:12:29.296Z,21.53
2022-08-14T20:15:11.306Z,21.53
2022-08-14T20:22:34.699Z,21.42
2022-08-14T20:24:54.145Z,21.42
2022-08-14T20:27:33.541Z,21.41
2022-08-14T20:30:35.694Z,21.41
2022-08-14T20:33:11.190Z,21.38
2022-08-14T20:35:49.045Z,21.35
2022-08-14T20:38:30.938Z,21.33
2022-08-14T20:45:13.316Z,21.21
2022-08-14T20:47:53.595Z,21.20
2022-08-14T20:50:28.810Z,21.18
2022-08-14T20:52:59.517Z,21.18
2022-08-14T20:55:41.705Z,21.16
2022-08-14T20:58:44.242Z,21.10
2022-08-14T21:01:19.738Z,21.06
2022-08-14T21:03:56.795Z,21.03
2022-08-14T21:07:23.012Z,20.97
2022-08-14T21:10:05.660Z,20.94
2022-08-14T21:12:35.286Z,20.92
2022-08-14T21:15:11.137Z,20.84
2022-08-14T21:17:39.563Z,20.79
2022-08-14T21:20:25.938Z,20.74
2022-08-14T21:22:56.574Z,20.72
2022-08-14T21:25:29.004Z,20.70
2022-08-14T21:28:06.853Z,20.66
2022-08-14T21:30:46.636Z,20.65
2022-08-14T21:33:19.615Z,20.60
2022-08-14T21:35:54.778Z,20.60
2022-08-14T21:38:33.491Z,20.60
2022-08-14T21:41:41.539Z,20.58
2022-08-14T21:44:01.638Z,20.56
2022-08-14T21:46:30.694Z,20.57
2022-08-14T21:48:57.932Z,20.53
2022-08-14T21:51:53.400Z,20.51
2022-08-14T21:58:52.058Z,20.37
2022-08-14T22:01:10.731Z,20.37
2022-08-14T22:03:46.903Z,20.36
2022-08-14T22:06:28.646Z,20.33
2022-08-14T22:08:59.531Z,20.28
2022-08-14T22:11:28.508Z,20.27
2022-08-14T22:13:56.383Z,20.27
2022-08-14T22:17:02.139Z,20.24
2022-08-14T22:19:20.316Z,20.20
2022-08-14T22:21:50.896Z,20.17
2022-08-14T22:24:37.514Z,20.17
2022-08-14T22:31:23.010Z,20.02
2022-08-14T22:33:57.792Z,19.99
2022-08-14T22:36:26.219Z,19.95
2022-08-14T22:38:55.479Z,19.94
2022-08-14T22:41:31.520Z,19.90
2022-08-14T22:44:14.843Z,19.88
2022-08-14T22:50:55.156Z,19.81
2022-08-14T22:53:22.789Z,19.80
2022-08-14T22:55:52.042Z,19.79
2022-08-14T22:58:30.569Z,19.79
2022-08-14T23:01:00.149Z,19.77
2022-08-14T23:03:29.314Z,19.76
2022-08-14T23:05:56.638Z,19.72
2022-08-14T23:08:59.797Z,19.72
2022-08-14T23:11:13.792Z,19.72
2022-08-14T23:13:43.376Z,19.72
2022-08-14T23:16:19.826Z,19.74
2022-08-14T23:18:53.758Z,19.76
2022-08-14T23:21:24.651Z,19.77
2022-08-14T23:23:57.610Z,19.79
2022-08-14T23:26:48.989Z,19.77
2022-08-14T23:29:17.950Z,19.78
2022-08-14T23:31:45.373Z,19.75
2022-08-14T23:34:20.653Z,19.71
2022-08-14T23:36:55.512Z,19.71
2022-08-14T23:39:32.495Z,19.68
2022-08-14T23:42:09.093Z,19.66
2022-08-14T23:44:38.102Z,19.64
2022-08-14T23:47:10.721Z,19.64
2022-08-14T23:50:01.211Z,19.63
2022-08-14T23:52:51.016Z,19.62
2022-08-14T23:55:16.953Z,19.59
2022-08-14T23:57:57.490Z,19.57
